createdAt,value
2018-11-23T00:00:17.353Z,-0.30
2018-11-23T00:02:46.798Z,-0.30
2018-11-23T00:05:15.220Z,-0.50
2018-11-23T00:07:43.842Z,-0.50
2018-11-23T00:10:16.694Z,-0.60
2018-11-23T00:12:45.063Z,-0.80
2018-11-23T00:20:13.488Z,-1.00
2018-11-23T00:27:40.085Z,-1.00
2018-11-23T00:30:11.157Z,-1.00
2018-11-23T00:32:39.510Z,-1.00
2018-11-23T00:35:09.287Z,-1.00
2018-11-23T00:37:37.430Z,-1.10
2018-11-23T00:45:02.846Z,-1.40
2018-11-23T00:49:59.438Z,-1.30
2018-11-23T00:59:52.115Z,-1.20
2018-11-23T01:02:20.258Z,-1.20
2018-11-23T01:04:48.409Z,-1.20
2018-11-23T01:07:16.542Z,-1.20
2018-11-23T01:09:44.695Z,-1.20
2018-11-23T01:12:12.851Z,-1.00
2018-11-23T01:17:08.954Z,-1.20
2018-11-23T01:22:05.112Z,-1.20
2018-11-23T01:24:33.335Z,-1.40
2018-11-23T01:29:29.701Z,-1.40
2018-11-23T01:31:57.857Z,-1.50
2018-11-23T01:34:26.211Z,-1.50
2018-11-23T01:36:54.443Z,-1.50
2018-11-23T01:39:22.575Z,-1.40
2018-11-23T01:44:18.651Z,-1.20
2018-11-23T01:46:47.174Z,-1.20
2018-11-23T01:54:11.409Z,-1.00
2018-11-23T01:56:39.895Z,-1.00
2018-11-23T02:01:36.003Z,-1.10
2018-11-23T02:06:32.223Z,-1.20
2018-11-23T02:11:28.531Z,-1.40
2018-11-23T02:13:56.703Z,-1.60
2018-11-23T02:18:52.953Z,-1.50
2018-11-23T02:21:21.320Z,-1.30
2018-11-23T02:23:49.678Z,-1.30
2018-11-23T02:31:13.871Z,-1.10
2018-11-23T02:33:42.195Z,-1.40
2018-11-23T02:36:11.074Z,-1.40
2018-11-23T02:38:39.278Z,-1.40
2018-11-23T02:41:07.619Z,-1.40
2018-11-23T02:43:35.797Z,-1.30
2018-11-23T02:46:04.188Z,-1.30
2018-11-23T02:48:32.338Z,-1.20
2018-11-23T02:51:00.483Z,-1.20
2018-11-23T02:53:28.747Z,-1.10
2018-11-23T02:55:56.958Z,-1.10
2018-11-23T02:58:25.141Z,-1.10
2018-11-23T03:03:21.239Z,-1.10
2018-11-23T03:05:49.398Z,-1.00
2018-11-23T03:08:17.675Z,-1.00
2018-11-23T03:10:45.862Z,-1.00
2018-11-23T03:15:42.277Z,-0.90
2018-11-23T03:20:38.350Z,-0.90
2018-11-23T03:23:06.603Z,-0.90
2018-11-23T03:25:34.750Z,-1.00
2018-11-23T03:28:03.116Z,-0.90
2018-11-23T03:30:31.752Z,-0.90
2018-11-23T03:35:27.851Z,-1.00
2018-11-23T03:37:56.025Z,-1.00
2018-11-23T03:40:24.175Z,-1.10
2018-11-23T03:42:52.359Z,-1.00
2018-11-23T03:47:48.667Z,-0.90
2018-11-23T03:50:17.827Z,-0.80
2018-11-23T03:55:14.236Z,-0.80
2018-11-23T03:57:42.402Z,-0.80
2018-11-23T04:00:17.478Z,-0.90
2018-11-23T04:02:42.343Z,-0.90
2018-11-23T04:05:10.510Z,-0.90
2018-11-23T04:10:07.951Z,-1.10
2018-11-23T04:12:36.219Z,-1.30
2018-11-23T04:15:04.835Z,-1.50
2018-11-23T04:20:00.917Z,-1.40
2018-11-23T04:22:29.378Z,-1.40
2018-11-23T04:24:57.520Z,-1.30
2018-11-23T04:29:53.640Z,-1.30
2018-11-23T04:32:21.798Z,-1.10
2018-11-23T04:34:50.492Z,-1.10
2018-11-23T04:37:18.664Z,-1.10
2018-11-23T04:39:46.830Z,-1.10
2018-11-23T04:42:14.982Z,-1.10
2018-11-23T04:49:39.183Z,-1.10
2018-11-23T04:52:07.341Z,-1.10
2018-11-23T04:57:03.928Z,-1.10
2018-11-23T04:59:32.083Z,-1.20
2018-11-23T05:04:28.370Z,-1.30
2018-11-23T05:09:24.759Z,-1.30
2018-11-23T05:11:52.914Z,-1.30
2018-11-23T05:19:17.255Z,-1.30
2018-11-23T05:24:13.450Z,-1.30
2018-11-23T05:26:41.860Z,-1.20
2018-11-23T05:29:10.373Z,-1.20
2018-11-23T05:31:38.951Z,-1.20
2018-11-23T05:34:07.146Z,-1.30
2018-11-23T05:36:35.310Z,-0.90
2018-11-23T05:41:33.088Z,-1.60
2018-11-23T05:48:57.109Z,-1.50
2018-11-23T05:51:25.267Z,-1.50
2018-11-23T05:53:53.427Z,-1.30
2018-11-23T05:56:21.583Z,-1.40
2018-11-23T05:58:49.752Z,-1.40
2018-11-23T06:01:18.037Z,-1.40
2018-11-23T06:03:46.566Z,-1.60
2018-11-23T06:06:14.750Z,-1.90
2018-11-23T06:08:42.928Z,-2.10
2018-11-23T06:11:11.071Z,-2.10
2018-11-23T06:21:03.835Z,-1.80
2018-11-23T06:23:32.029Z,-2.00
2018-11-23T06:26:19.684Z,-2.20
2018-11-23T06:28:48.058Z,-2.10
2018-11-23T06:31:16.294Z,-2.00
2018-11-23T06:33:45.688Z,-1.90
2018-11-23T06:36:13.894Z,-1.80
2018-11-23T06:38:42.058Z,-1.70
2018-11-23T06:41:10.856Z,-1.70
2018-11-23T06:43:38.961Z,-1.70
2018-11-23T06:48:36.255Z,-1.80
2018-11-23T06:51:04.666Z,-1.70
2018-11-23T06:53:32.855Z,-1.60
2018-11-23T07:03:25.682Z,-1.30
2018-11-23T07:10:50.713Z,-1.20
2018-11-23T07:18:14.884Z,-1.00
2018-11-23T07:28:07.318Z,-0.90
2018-11-23T07:30:35.562Z,-1.00
2018-11-23T07:33:03.735Z,-1.20
2018-11-23T07:35:31.906Z,-1.40
2018-11-23T07:40:41.350Z,-1.40
2018-11-23T07:43:09.504Z,-1.30
2018-11-23T07:45:37.658Z,-1.20
2018-11-23T07:48:06.390Z,-1.10
2018-11-23T07:50:34.834Z,-1.00
2018-11-23T07:53:03.030Z,-1.00
2018-11-23T07:57:59.179Z,-0.80
2018-11-23T08:00:27.991Z,-0.80
2018-11-23T08:02:56.311Z,-0.80
2018-11-23T08:05:24.552Z,-0.80
2018-11-23T08:07:52.687Z,-0.80
2018-11-23T08:10:20.272Z,-0.70
2018-11-23T08:15:20.631Z,-0.60
2018-11-23T08:17:48.837Z,-0.40
2018-11-23T08:20:18.239Z,-0.40
2018-11-23T08:22:46.451Z,-0.20
2018-11-23T08:25:15.714Z,-0.10
2018-11-23T08:30:17.300Z,0.00
2018-11-23T08:35:13.823Z,0.10
2018-11-23T08:37:42.081Z,0.10
2018-11-23T08:42:43.580Z,0.10
2018-11-23T08:45:13.039Z,0.00
2018-11-23T09:00:02.180Z,0.40
2018-11-23T09:02:30.359Z,0.60
2018-11-23T09:04:58.652Z,0.70
2018-11-23T09:07:27.034Z,0.80
2018-11-23T09:09:55.179Z,0.90
2018-11-23T09:12:23.626Z,1.00
2018-11-23T09:14:51.834Z,1.10
2018-11-23T09:19:48.059Z,1.20
2018-11-23T09:22:23.195Z,1.40
2018-11-23T09:24:44.643Z,1.40
2018-11-23T09:27:13.064Z,1.50
2018-11-23T09:29:41.287Z,1.60
2018-11-23T09:32:09.520Z,1.70
2018-11-23T09:34:37.669Z,1.80
2018-11-23T09:39:33.755Z,1.90
2018-11-23T09:42:01.963Z,2.00
2018-11-23T09:44:30.247Z,2.00
2018-11-23T09:46:58.396Z,2.00
2018-11-23T09:49:26.528Z,2.10
2018-11-23T09:51:54.869Z,2.10
2018-11-23T09:54:23.144Z,2.10
2018-11-23T09:56:51.298Z,2.20
2018-11-23T09:59:19.464Z,2.20
2018-11-23T10:01:47.602Z,2.30
2018-11-23T10:04:15.823Z,2.30
2018-11-23T10:06:43.991Z,2.40
2018-11-23T10:09:12.309Z,2.50
2018-11-23T10:11:40.494Z,2.60
2018-11-23T10:14:08.659Z,2.60
2018-11-23T10:19:06.408Z,2.70
2018-11-23T10:21:34.578Z,2.70
2018-11-23T10:24:02.734Z,2.70
2018-11-23T10:26:31.231Z,2.70
2018-11-23T10:28:59.596Z,2.70
2018-11-23T10:31:27.762Z,2.70
2018-11-23T10:33:56.074Z,2.80
2018-11-23T10:36:24.301Z,2.80
2018-11-23T10:38:52.480Z,2.90
2018-11-23T10:41:20.818Z,3.00
2018-11-23T10:43:49.366Z,3.10
2018-11-23T10:46:17.554Z,3.20
2018-11-23T10:48:46.083Z,3.40
2018-11-23T10:51:14.659Z,3.40
2018-11-23T10:53:42.863Z,3.60
2018-11-23T10:56:11.010Z,3.70
2018-11-23T10:58:39.127Z,3.80
2018-11-23T11:01:12.944Z,4.00
2018-11-23T11:04:44.505Z,4.00
2018-11-23T11:07:12.667Z,4.20
2018-11-23T11:09:41.396Z,4.30
2018-11-23T11:12:09.975Z,4.40
2018-11-23T11:14:38.164Z,4.50
2018-11-23T11:17:06.929Z,4.60
2018-11-23T11:24:32.040Z,4.90
2018-11-23T11:27:00.410Z,4.90
2018-11-23T11:29:28.762Z,4.90
2018-11-23T11:31:57.027Z,5.10
2018-11-23T11:34:25.261Z,5.20
2018-11-23T11:36:53.392Z,5.30
2018-11-23T11:39:21.759Z,5.30
2018-11-23T11:41:50.023Z,5.40
2018-11-23T11:44:18.207Z,5.50
2018-11-23T11:49:14.429Z,5.60
2018-11-23T11:51:42.560Z,5.70
2018-11-23T11:54:10.695Z,5.70
2018-11-23T11:56:38.975Z,5.80
2018-11-23T11:59:07.133Z,5.80
2018-11-23T12:01:35.258Z,5.80
2018-11-23T12:06:31.636Z,5.80
2018-11-23T12:08:59.832Z,5.80
2018-11-23T12:11:28.242Z,5.90
2018-11-23T12:13:56.398Z,5.90
2018-11-23T12:16:24.587Z,5.90
2018-11-23T12:18:52.767Z,5.90
2018-11-23T12:21:20.928Z,6.00
2018-11-23T12:23:49.352Z,6.00
2018-11-23T12:26:17.769Z,6.00
2018-11-23T12:31:13.803Z,6.00
2018-11-23T12:36:10.155Z,6.10
2018-11-23T12:38:43.014Z,6.10
2018-11-23T12:43:34.501Z,6.20
2018-11-23T12:46:02.864Z,6.20
2018-11-23T12:48:31.051Z,6.20
2018-11-23T12:53:27.175Z,6.30
2018-11-23T12:55:55.398Z,6.30
2018-11-23T12:58:23.786Z,6.30
2018-11-23T13:03:19.891Z,6.30
2018-11-23T13:05:48.379Z,6.30
2018-11-23T13:08:16.746Z,6.30
2018-11-23T13:10:45.394Z,6.40
2018-11-23T13:13:13.614Z,6.40
2018-11-23T13:15:42.116Z,6.40
2018-11-23T13:18:10.431Z,6.50
2018-11-23T13:20:38.670Z,6.40
2018-11-23T13:23:07.096Z,6.50
2018-11-23T13:25:35.268Z,6.50
2018-11-23T13:28:03.843Z,6.50
2018-11-23T13:33:02.903Z,6.50
2018-11-23T13:35:31.115Z,6.50
2018-11-23T13:37:59.262Z,6.50
2018-11-23T13:40:28.319Z,6.50
2018-11-23T13:42:57.616Z,6.50
2018-11-23T13:45:27.135Z,6.40
2018-11-23T13:52:53.796Z,6.30
2018-11-23T13:57:50.315Z,6.30
2018-11-23T14:00:28.592Z,6.30
2018-11-23T14:02:56.958Z,6.30
2018-11-23T14:05:26.829Z,6.30
2018-11-23T14:07:57.679Z,6.30
2018-11-23T14:10:27.028Z,6.30
2018-11-23T14:12:55.195Z,6.40
2018-11-23T14:17:53.845Z,6.70
2018-11-23T14:20:22.958Z,6.70
2018-11-23T14:35:16.510Z,6.40
2018-11-23T14:40:13.954Z,6.40
2018-11-23T14:42:43.182Z,6.30
2018-11-23T14:45:17.644Z,6.30
2018-11-23T14:47:46.078Z,6.20
2018-11-23T14:50:17.221Z,6.20
2018-11-23T14:57:43.723Z,6.00
2018-11-23T15:00:17.802Z,5.90
2018-11-23T15:02:47.278Z,5.90
2018-11-23T15:05:16.443Z,5.80
2018-11-23T15:07:44.771Z,5.70
2018-11-23T15:10:15.534Z,5.70
2018-11-23T15:12:44.630Z,5.60
2018-11-23T15:17:43.752Z,5.50
2018-11-23T15:20:14.620Z,5.50
2018-11-23T15:30:14.521Z,5.30
2018-11-23T15:35:11.608Z,5.10
2018-11-23T15:37:39.842Z,5.10
2018-11-23T15:40:10.823Z,5.10
2018-11-23T15:42:38.970Z,5.00
2018-11-23T15:50:15.034Z,4.80
2018-11-23T15:52:43.582Z,4.80
2018-11-23T16:05:09.784Z,4.60
2018-11-23T16:07:37.931Z,4.60
2018-11-23T16:10:12.953Z,4.50
2018-11-23T16:12:41.231Z,4.50
2018-11-23T16:17:38.298Z,4.50
2018-11-23T16:20:09.651Z,4.40
2018-11-23T16:27:35.236Z,4.30
2018-11-23T16:30:04.402Z,4.30
2018-11-23T16:32:33.339Z,4.40
2018-11-23T16:37:30.051Z,4.50
2018-11-23T16:42:27.830Z,4.50
2018-11-23T16:44:57.228Z,4.50
2018-11-23T16:52:22.039Z,4.40
2018-11-23T16:54:50.871Z,4.40
2018-11-23T16:57:19.074Z,4.40
2018-11-23T16:59:47.991Z,4.40
2018-11-23T17:02:16.286Z,4.30
2018-11-23T17:04:44.746Z,4.30
2018-11-23T17:07:13.171Z,4.30
2018-11-23T17:09:41.106Z,4.20
2018-11-23T17:12:10.163Z,4.20
2018-11-23T17:14:39.111Z,4.20
2018-11-23T17:17:08.355Z,4.10
2018-11-23T17:19:36.527Z,4.10
2018-11-23T17:29:30.091Z,4.00
2018-11-23T17:31:58.250Z,4.00
2018-11-23T17:36:55.099Z,3.90
2018-11-23T17:39:23.278Z,3.90
2018-11-23T17:41:51.435Z,3.80
2018-11-23T17:44:20.159Z,3.80
2018-11-23T17:46:48.882Z,3.80
2018-11-23T17:56:41.323Z,3.60
2018-11-23T17:59:10.417Z,3.60
2018-11-23T18:01:38.643Z,3.50
2018-11-23T18:04:06.811Z,3.50
2018-11-23T18:06:35.015Z,3.40
2018-11-23T18:09:04.330Z,3.40
2018-11-23T18:11:33.497Z,3.30
2018-11-23T18:14:01.947Z,3.30
2018-11-23T18:16:30.373Z,3.20
2018-11-23T18:18:58.600Z,3.20
2018-11-23T18:23:55.119Z,3.10
2018-11-23T18:28:51.311Z,3.00
2018-11-23T18:31:20.042Z,2.90
2018-11-23T18:33:48.289Z,2.90
2018-11-23T18:36:17.056Z,2.90
2018-11-23T18:38:45.290Z,2.80
2018-11-23T18:41:13.530Z,2.80
2018-11-23T18:43:41.747Z,2.70
2018-11-23T18:51:06.980Z,2.70
2018-11-23T18:58:32.063Z,2.50
2018-11-23T19:05:57.239Z,2.50
2018-11-23T19:08:25.399Z,2.50
2018-11-23T19:10:53.542Z,2.40
2018-11-23T19:15:51.248Z,2.40
2018-11-23T19:18:19.491Z,2.40
2018-11-23T19:20:47.643Z,2.40
2018-11-23T19:23:15.790Z,2.40
2018-11-23T19:30:40.120Z,2.30
2018-11-23T19:33:08.632Z,2.30
2018-11-23T19:35:36.796Z,2.30
2018-11-23T19:38:06.225Z,2.30
2018-11-23T19:43:02.735Z,2.20
2018-11-23T19:47:58.811Z,2.30
2018-11-23T19:50:27.684Z,2.30
2018-11-23T20:00:22.132Z,2.30
2018-11-23T20:02:51.451Z,2.30
2018-11-23T20:05:19.785Z,2.30
2018-11-23T20:07:49.959Z,2.30
2018-11-23T20:10:20.061Z,2.40
2018-11-23T20:12:49.621Z,2.30
2018-11-23T20:15:18.578Z,2.40
2018-11-23T20:17:47.560Z,2.40
2018-11-23T20:22:44.568Z,2.40
2018-11-23T20:25:18.394Z,2.60
2018-11-23T20:27:47.354Z,2.50
2018-11-23T20:30:16.371Z,2.50
2018-11-23T20:32:44.818Z,2.40
2018-11-23T20:35:14.151Z,2.40
2018-11-23T20:37:42.320Z,2.40
2018-11-23T20:40:14.683Z,2.40
2018-11-23T20:42:42.859Z,2.40
2018-11-23T20:50:09.439Z,2.40
2018-11-23T20:57:35.518Z,2.30
2018-11-23T21:00:06.463Z,2.30
2018-11-23T21:05:02.872Z,2.30
2018-11-23T21:07:31.639Z,2.30
2018-11-23T21:12:28.330Z,2.30
2018-11-23T21:14:56.502Z,2.30
2018-11-23T21:17:25.534Z,2.30
2018-11-23T21:27:17.544Z,2.30
2018-11-23T21:29:45.718Z,2.30
2018-11-23T21:32:13.871Z,2.30
2018-11-23T21:34:42.041Z,2.30
2018-11-23T21:37:10.208Z,2.30
2018-11-23T21:42:06.379Z,2.30
2018-11-23T21:51:59.122Z,2.40
2018-11-23T21:54:27.284Z,2.30
2018-11-23T21:56:56.119Z,2.30
2018-11-23T21:59:24.330Z,2.30
2018-11-23T22:01:53.055Z,2.30
2018-11-23T22:04:21.285Z,2.30
2018-11-23T22:06:50.042Z,2.30
2018-11-23T22:09:18.793Z,2.20
2018-11-23T22:11:52.311Z,2.20
2018-11-23T22:14:15.541Z,2.20
2018-11-23T22:16:44.332Z,2.20
2018-11-23T22:19:12.572Z,2.20
2018-11-23T22:21:40.729Z,2.20
2018-11-23T22:24:08.867Z,2.30
2018-11-23T22:26:37.096Z,2.30
2018-11-23T22:31:34.111Z,2.30
2018-11-23T22:34:02.621Z,2.30
2018-11-23T22:36:30.819Z,2.30
2018-11-23T22:38:59.003Z,2.30
2018-11-23T22:41:27.252Z,2.30
2018-11-23T22:43:56.135Z,2.30
2018-11-23T22:46:24.430Z,2.30
2018-11-23T22:48:53.118Z,2.40
2018-11-23T22:58:47.428Z,2.40
2018-11-23T23:01:15.695Z,2.40
2018-11-23T23:03:43.875Z,2.40
2018-11-23T23:06:12.989Z,2.40
2018-11-23T23:11:09.961Z,2.40
2018-11-23T23:16:06.946Z,2.40
2018-11-23T23:23:31.103Z,2.40
2018-11-23T23:25:59.275Z,2.40
2018-11-23T23:28:27.439Z,2.40
2018-11-23T23:30:56.082Z,2.40
2018-11-23T23:33:24.310Z,2.40
2018-11-23T23:35:53.395Z,2.50
2018-11-23T23:38:21.591Z,2.50
2018-11-23T23:40:50.363Z,2.50
2018-11-23T23:43:18.551Z,2.50
2018-11-23T23:45:47.820Z,2.60
2018-11-23T23:53:12.364Z,2.70
2018-11-23T23:55:40.530Z,2.80
2018-11-23T23:58:09.142Z,2.80
